sensor_id;sensor_type;location;lat;lon;timestamp;P1;P2;P0
68198;PMS7003;55021;51.554;17.044;2024-03-23T00:55:50;44.50;38.00;23.25
68198;PMS7003;55021;51.554;17.044;2024-03-23T01:25:59;45.25;37.25;22.00
68198;PMS7003;55021;51.554;17.044;2024-03-23T01:56:03;43.00;35.75;22.00
68198;PMS7003;55021;51.554;17.044;2024-03-23T02:11:07;53.00;41.00;23.00
68198;PMS7003;55021;51.554;17.044;2024-03-23T02:41:11;40.50;35.75;22.50
68198;PMS7003;55021;51.554;17.044;2024-03-23T03:11:17;49.50;36.75;22.25
68198;PMS7003;55021;51.554;17.044;2024-03-23T03:41:26;43.25;39.25;24.25
68198;PMS7003;55021;51.554;17.044;2024-03-23T04:11:36;45.50;36.75;23.00
68198;PMS7003;55021;51.554;17.044;2024-03-23T04:56:54;53.75;39.25;25.00
68198;PMS7003;55021;51.554;17.044;2024-03-23T05:26:58;51.75;41.00;23.25
68198;PMS7003;55021;51.554;17.044;2024-03-23T05:57:20;54.25;42.50;27.75
68198;PMS7003;55021;51.554;17.044;2024-03-23T06:27:29;53.75;38.00;25.00
68198;PMS7003;55021;51.554;17.044;2024-03-23T06:57:34;44.25;37.50;24.00
68198;PMS7003;55021;51.554;17.044;2024-03-23T07:27:43;49.50;36.00;22.00
68198;PMS7003;55021;51.554;17.044;2024-03-23T07:58:08;47.00;37.00;22.00
68198;PMS7003;55021;51.554;17.044;2024-03-23T08:28:20;45.25;36.75;24.75
68198;PMS7003;55021;51.554;17.044;2024-03-23T08:43:32;47.00;37.75;25.00
68198;PMS7003;55021;51.554;17.044;2024-03-23T09:56:20;42.00;33.75;20.75
68198;PMS7003;55021;51.554;17.044;2024-03-23T10:11:23;44.25;35.00;23.00
68198;PMS7003;55021;51.554;17.044;2024-03-23T10:26:26;43.25;35.75;21.00
68198;PMS7003;55021;51.554;17.044;2024-03-23T10:41:28;49.50;37.50;23.25
68198;PMS7003;55021;51.554;17.044;2024-03-23T11:27:31;54.00;41.50;25.25
68198;PMS7003;55021;51.554;17.044;2024-03-23T12:13:47;52.00;41.25;26.50
68198;PMS7003;55021;51.554;17.044;2024-03-23T12:44:15;49.50;39.00;24.50
68198;PMS7003;55021;51.554;17.044;2024-03-23T12:59:18;54.00;39.00;24.75
68198;PMS7003;55021;51.554;17.044;2024-03-23T13:30:05;26.00;25.00;14.50
68198;PMS7003;55021;51.554;17.044;2024-03-23T13:45:09;10.00;9.25;4.00
68198;PMS7003;55021;51.554;17.044;2024-03-23T14:15:14;6.00;5.00;0.50
68198;PMS7003;55021;51.554;17.044;2024-03-23T14:53:08;3.25;3.25;0.00
68198;PMS7003;55021;51.554;17.044;2024-03-23T15:23:17;10.50;9.00;4.00
68198;PMS7003;55021;51.554;17.044;2024-03-23T15:53:22;8.00;8.00;2.00
68198;PMS7003;55021;51.554;17.044;2024-03-23T16:23:29;6.00;6.00;2.00
68198;PMS7003;55021;51.554;17.044;2024-03-23T16:53:38;10.25;9.75;4.00
68198;PMS7003;55021;51.554;17.044;2024-03-23T17:23:45;8.00;8.00;2.00
68198;PMS7003;55021;51.554;17.044;2024-03-23T17:53:53;13.50;9.50;4.25
68198;PMS7003;55021;51.554;17.044;2024-03-23T18:08:58;8.25;8.25;2.00
68198;PMS7003;55021;51.554;17.044;2024-03-23T18:39:05;8.00;8.00;2.00
68198;PMS7003;55021;51.554;17.044;2024-03-23T18:54:08;8.25;8.00;2.00
68198;PMS7003;55021;51.554;17.044;2024-03-23T19:09:11;12.25;8.00;1.50
68198;PMS7003;55021;51.554;17.044;2024-03-23T19:24:13;9.00;8.75;2.00
68198;PMS7003;55021;51.554;17.044;2024-03-23T19:54:20;14.00;12.25;6.00
68198;PMS7003;55021;51.554;17.044;2024-03-23T20:24:30;45.25;35.25;19.75
68198;PMS7003;55021;51.554;17.044;2024-03-23T20:54:38;25.75;23.00;13.00
68198;PMS7003;55021;51.554;17.044;2024-03-23T21:24:47;28.50;24.50;14.00
68198;PMS7003;55021;51.554;17.044;2024-03-23T21:54:53;22.25;19.00;10.25
68198;PMS7003;55021;51.554;17.044;2024-03-23T22:24:59;20.25;17.00;9.00
68198;PMS7003;55021;51.554;17.044;2024-03-23T22:55:06;26.00;17.25;9.00
68198;PMS7003;55021;51.554;17.044;2024-03-23T23:25:11;24.00;16.00;8.25
68198;PMS7003;55021;51.554;17.044;2024-03-23T23:55:17;21.75;18.25;9.00
